Flight Briefing for CPX14

Departure Arrival
Ted Stevens Anchorage International Airport (PANC)
Click to view FAA NOTAMS
Incheon International Airport (RKSI)
Click to view FAA NOTAMS
Departure Time Arrival Time
N/A N/A
Aircraft Distance
B747-400BCF 3793nm
Departure METAR Arrival METAR
PANC 190653Z 15017G23KT 10SM FEW050 SCT070 BKN090 05/00 A2949 RMK AO2 PK WND 15031/0634 SLP987 T00500000 RKSI 190700Z 23008KT 9999 SCT014 BKN025 10/04 Q1016 NOSIG
Suggested Route
NODLE R220 NOSHO R220 NANZA R220 NODAN R217 GTC Y142 SAMON Y14 DRIPS Y16 SAPRA G585 SEL


View recent IFR Routes data
Notes



Charts and Procedures

Charts for PANC
No chart available
Charts for RKSI
No chart available

Windy.com Weather Map